Latest Weather Observations for Melbourne Airport

IDV60801

Issued at 5:12 pm EDT Thursday 28 January 2021 (issued every 10 minutes, with the page automatically refreshed every 10 minutes)

About weather observations | Map of weather stations | Latest weather observations for VIC | Other Formats
Station Details ID: 086282 Name: MELBOURNE AIRPORT Lat: -37.67 Lon: 144.83 Height: 113.4 m
Data from the previous 72 hours. | See also: Recent months at Melbourne Airport
Date/Time
EDT
Temp
°C
App
Temp
°C
Dew
Point
°C
Rel
Hum
%
Delta-T
°C
Wind Press
QNH
hPa
Press
MSL
hPa
Rain since
9am
mm
Dir  Spd
km/h
Gust
km/h
Spd
kts
Gust
kts
28/05:00pm 24.0 23.2 16.0 61 4.9 ENE 15 20 8 11 1015.0 1014.6 0.0
28/04:30pm 24.1 23.0 15.3 58 5.3 ENE 15 26 8 14 1015.1 1014.7 0.0
28/04:00pm 23.7 22.9 15.0 58 5.2 E 13 17 7 9 1015.4 1015.1 0.0
28/03:30pm 23.9 22.0 14.1 54 5.8 ESE 17 20 9 11 1015.3 1015.0 0.0
28/03:00pm 24.6 22.7 14.3 52 6.1 E 17 20 9 11 1015.5 1015.2 0.0
28/02:30pm 24.6 22.0 13.7 50 6.4 ESE 20 26 11 14 1015.6 1015.3 0.0
28/02:00pm 23.9 22.2 13.5 52 6.1 ESE 15 19 8 10 1015.8 1015.5 0.0
28/01:30pm 23.4 22.2 12.8 51 6.1 SE 11 17 6 9 1016.3 1016.0 0.0
28/01:00pm 23.3 22.1 12.9 52 6.0 ESE 11 17 6 9 1016.6 1016.3 0.0
28/12:30pm 22.6 21.6 12.4 52 5.8 ENE 9 13 5 7 1017.0 1016.7 0.0
28/12:00pm 22.4 21.4 12.4 53 5.7 SE 9 15 5 8 1017.1 1016.8 0.0
28/11:30am 21.8 22.0 12.9 57 5.1 SSE 4 9 2 5 1017.4 1017.1 0.0
28/11:00am 21.1 21.2 12.7 58 4.8 WSW 4 7 2 4 1017.5 1017.2 0.0
28/10:30am 20.5 20.0 12.8 61 4.4 S 7 13 4 7 1017.5 1017.2 0.0
28/10:00am 19.9 19.0 12.6 63 4.1 SSE 9 15 5 8 1017.5 1017.2 0.0
28/09:30am 19.2 18.9 12.8 66 3.6 ENE 6 9 3 5 1017.7 1017.4 0.0
28/09:00am 18.6 17.9 13.1 70 3.1 WSW 9 11 5 6 1017.4 1017.1 0.0
28/08:30am 17.3 16.6 13.2 77 2.3 W 9 11 5 6 1017.5 1017.2 0.0
28/08:00am 16.3 15.7 13.5 83 1.6 WNW 9 11 5 6 1017.2 1016.9 0.0
28/07:30am 15.7 14.8 13.6 87 1.2 WNW 11 13 6 7 1017.0 1016.7 0.0
28/07:00am 14.6 13.9 13.2 91 0.8 WNW 9 11 5 6 1016.9 1016.6 0.0
28/06:30am 14.3 12.7 12.8 91 0.8 WNW 13 15 7 8 1016.6 1016.3 0.0
28/06:00am 14.1 12.9 12.8 92 0.7 WNW 11 15 6 8 1016.2 1015.9 0.0
28/05:30am 14.5 13.0 13.1 91 0.8 WNW 13 15 7 8 1015.9 1015.6 0.0
28/05:00am 15.0 13.9 13.0 88 1.1 WNW 11 13 6 7 1015.5 1015.2 0.0
28/04:30am 15.2 14.4 12.9 86 1.3 WNW 9 9 5 5 1015.4 1015.1 0.0
28/04:00am 16.3 16.4 12.7 79 2.0 SW 4 6 2 3 1015.2 1014.9 0.0
28/03:30am 16.4 16.1 13.4 82 1.7 WSW 7 9 4 5 1015.5 1015.2 0.0
28/03:00am 16.2 15.6 13.4 83 1.6 WSW 9 11 5 6 1015.7 1015.4 0.0
28/02:30am 15.5 14.9 13.4 87 1.2 WSW 9 9 5 5 1015.5 1015.2 0.0
28/02:00am 15.8 16.7 12.9 83 1.6 CALM 0 0 0 0 1015.2 1014.9 0.0
28/01:30am 15.3 14.5 13.0 86 1.3 SW 9 11 5 6 1015.0 1014.6 0.0
28/01:00am 15.9 15.1 13.0 83 1.6 S 9 11 5 6 1015.4 1015.1 0.0
28/12:30am 16.4 15.6 13.0 80 1.9 S 9 11 5 6 1015.1 1014.7 0.0
28/12:00am 16.9 15.7 12.8 77 2.3 S 11 17 6 9 1015.1 1014.7 0.0
 
Date/Time
EDT
Temp
°C
App
Temp
°C
Dew
Point
°C
Rel
Hum
%
Delta-T
°C
Wind Press
QNH
hPa
Press
MSL
hPa
Rain since
9am
mm
Dir  Spd
km/h
Gust
km/h
Spd
kts
Gust
kts
27/11:30pm 17.2 15.5 12.5 74 2.6 S 13 15 7 8 1015.2 1014.9 0.0
27/11:00pm 17.7 15.1 12.1 69 3.1 SSE 17 22 9 12 1015.3 1015.0 0.0
27/10:30pm 18.7 15.5 11.8 64 3.8 SSE 20 26 11 14 1015.1 1014.7 0.0
27/10:00pm 19.2 14.3 11.4 60 4.3 SSE 28 32 15 17 1014.8 1014.4 0.0
27/09:30pm 19.7 15.1 10.9 57 4.8 SSE 26 33 14 18 1014.2 1013.8 0.0
27/09:00pm 20.5 15.7 10.4 52 5.5 SE 26 35 14 19 1013.9 1013.5 0.0
27/08:30pm 21.4 15.3 9.8 47 6.3 SSE 32 39 17 21 1013.4 1013.0 0.0
27/08:00pm 23.1 17.4 8.5 39 7.8 SSE 28 35 15 19 1013.0 1012.6 0.0
27/07:30pm 23.7 20.0 8.1 37 8.3 SSW 17 24 9 13 1013.1 1012.7 0.0
27/07:00pm 23.4 19.4 10.4 43 7.2 SSW 22 30 12 16 1013.4 1013.0 0.0
27/06:30pm 22.7 19.1 11.7 49 6.2 SSW 22 28 12 15 1013.4 1013.0 0.0
27/06:00pm 22.3 18.4 12.1 52 5.8 SSW 24 35 13 19 1013.5 1013.1 0.0
27/05:30pm 21.7 17.1 12.2 54 5.4 SSW 28 35 15 19 1013.7 1013.3 0.0
27/05:00pm 22.4 17.4 11.1 48 6.3 SSW 28 39 15 21 1014.1 1013.7 0.0
27/04:30pm 21.5 16.1 10.8 50 5.9 SSW 30 41 16 22 1014.8 1014.4 0.0
27/04:00pm 21.6 16.4 10.3 48 6.2 SSW 28 39 15 21 1014.4 1014.0 0.0
27/03:30pm 21.9 15.6 9.0 43 6.9 SSW 32 43 17 23 1014.8 1014.4 0.0
27/03:00pm 21.2 15.5 8.5 44 6.7 SSW 28 39 15 21 1015.2 1014.9 0.0
27/02:30pm 21.1 15.2 7.6 41 7.0 SSW 28 37 15 20 1015.2 1014.9 0.0
27/02:00pm 20.8 15.6 7.2 41 7.0 S 24 33 13 18 1015.6 1015.3 0.0
27/01:30pm 19.2 13.7 7.5 46 6.0 S 26 41 14 22 1015.8 1015.5 0.0
27/01:00pm 19.4 13.8 7.2 45 6.2 S 26 39 14 21 1015.8 1015.5 0.0
27/12:30pm 18.6 13.7 7.1 47 5.8 S 22 32 12 17 1016.1 1015.8 0.0
27/12:00pm 18.1 12.3 6.4 46 5.8 S 26 39 14 21 1016.4 1016.1 0.0
27/11:30am 18.4 12.6 6.3 45 6.0 S 26 39 14 21 1016.8 1016.5 0.0
27/11:00am 17.6 12.2 6.3 47 5.6 S 24 33 13 18 1016.7 1016.4 0.0
27/10:30am 17.3 10.8 6.4 48 5.4 SSE 30 37 16 20 1016.6 1016.3 0.0
27/10:00am 17.1 10.8 5.8 47 5.5 SSE 28 39 15 21 1016.5 1016.2 0.0
27/09:30am 15.3 8.6 5.7 52 4.6 SSE 30 39 16 21 1016.6 1016.3 0.0
27/09:00am 15.3 8.6 5.5 52 4.7 SSE 30 35 16 19 1016.2 1015.9 0.4
27/08:30am 14.7 8.7 5.5 54 4.4 SSE 26 35 14 19 1016.2 1015.9 0.4
27/08:00am 14.3 8.2 4.9 53 4.4 SSE 26 35 14 19 1016.0 1015.7 0.4
27/07:30am 13.8 8.5 4.8 54 4.2 SE 22 30 12 16 1015.8 1015.5 0.4
27/07:00am 13.7 8.0 4.7 54 4.2 SSE 24 32 13 17 1015.4 1015.1 0.4
27/06:30am 13.5 7.8 4.9 56 4.0 SE 24 30 13 16 1015.0 1014.6 0.4
27/06:00am 13.6 7.6 5.3 57 3.9 SSE 26 32 14 17 1014.6 1014.2 0.4
27/05:30am 13.5 8.0 6.0 60 3.6 SSE 24 32 13 17 1014.1 1013.7 0.4
27/05:00am 13.5 8.6 5.2 57 3.9 SSE 20 28 11 15 1013.7 1013.3 0.4
27/04:30am 13.5 8.7 5.4 58 3.8 SSE 20 28 11 15 1013.5 1013.1 0.4
27/04:00am 13.4 8.6 5.8 60 3.6 SSE 20 26 11 14 1013.6 1013.2 0.4
27/03:30am 13.4 8.1 5.1 57 3.9 S 22 28 12 15 1013.7 1013.3 0.4
27/03:00am 13.4 7.3 4.8 56 4.0 S 26 35 14 19 1013.7 1013.3 0.4
27/02:30am 13.1 7.9 5.7 61 3.5 S 22 30 12 16 1013.5 1013.1 0.4
27/02:00am 13.8 8.4 6.3 60 3.6 S 24 33 13 18 1013.4 1013.0 0.4
27/01:30am 14.0 7.6 7.1 63 3.4 S 30 37 16 20 1013.0 1012.6 0.4
27/01:00am 14.4 9.3 7.8 64 3.3 S 24 33 13 18 1012.9 1012.5 0.4
27/12:30am 14.7 9.7 7.9 63 3.4 S 24 33 13 18 1012.8 1012.4 0.4
27/12:00am 15.0 9.7 8.5 65 3.3 S 26 33 14 18 1012.6 1012.2 0.4
 
Date/Time
EDT
Temp
°C
App
Temp
°C
Dew
Point
°C
Rel
Hum
%
Delta-T
°C
Wind Press
QNH
hPa
Press
MSL
hPa
Rain since
9am
mm
Dir  Spd
km/h
Gust
km/h
Spd
kts
Gust
kts
26/11:30pm 15.1 10.2 8.6 65 3.3 S 24 33 13 18 1012.4 1012.0 0.4
26/11:00pm 15.2 9.9 9.9 70 2.8 S 28 37 15 20 1012.1 1011.7 0.4
26/10:30pm 15.4 9.4 10.1 70 2.8 S 32 41 17 22 1012.0 1011.6 0.4
26/10:00pm 15.6 11.2 10.5 71 2.7 S 24 35 13 19 1011.7 1011.3 0.4
26/09:30pm 15.6 11.7 10.7 72 2.6 S 22 28 12 15 1011.2 1010.8 0.4
26/09:00pm 15.7 11.9 11.1 74 2.5 S 22 32 12 17 1010.7 1010.3 0.4
26/08:30pm 16.0 11.1 11.2 73 2.6 S 28 33 15 18 1010.2 1009.8 0.4
26/08:00pm 16.7 11.8 11.4 71 2.9 S 28 39 15 21 1009.6 1009.2 0.4
26/07:30pm 17.1 12.5 11.0 67 3.3 S 26 35 14 19 1009.0 1008.7 0.4
26/07:00pm 17.3 11.8 10.6 64 3.6 S 30 37 16 20 1008.5 1008.2 0.4
26/06:30pm 17.6 12.4 11.6 68 3.3 S 30 37 16 20 1008.0 1007.7 0.4
26/06:00pm 18.2 13.2 10.8 62 4.0 S 28 35 15 19 1007.7 1007.3 0.4
26/05:30pm 17.5 13.5 11.9 69 3.1 S 24 33 13 18 1007.5 1007.1 0.4
26/05:00pm 17.6 13.0 11.2 66 3.5 S 26 37 14 20 1007.2 1006.8 0.4
26/04:30pm 17.6 13.7 12.0 69 3.1 S 24 32 13 17 1006.9 1006.5 0.4
26/04:00pm 17.7 13.5 12.5 71 2.9 S 26 33 14 18 1006.6 1006.2 0.4
26/03:30pm 17.3 13.3 12.9 75 2.5 S 26 33 14 18 1006.4 1006.0 0.4
26/03:00pm 17.3 14.2 13.4 78 2.2 S 22 30 12 16 1006.4 1006.0 0.4
26/02:30pm 16.4 13.0 14.7 90 1.0 S 26 33 14 18 1006.3 1005.9 0.4
26/02:00pm 16.5 13.5 14.8 90 1.0 SSW 24 32 13 17 1006.3 1005.9 0.4
26/01:30pm 16.3 13.3 14.7 90 0.9 S 24 35 13 19 1005.8 1005.4 0.4
26/01:00pm 16.7 13.4 15.0 90 1.0 SSW 26 37 14 20 1005.6 1005.2 0.4
26/12:49pm 16.6 13.1 15.4 93 0.7 SSW 28 33 15 18 1005.5 1005.1 0.4
26/12:30pm 16.7 13.7 15.9 95 0.5 SSW 26 33 14 18 1005.1 1004.7 0.4
26/12:08pm 16.8 14.2 15.8 94 0.6 SSW 24 35 13 19 1004.8 1004.4 0.4
26/12:00pm 16.6 13.9 15.6 94 0.6 SSW 24 33 13 18 1004.8 1004.4 0.4
26/11:47am 17.1 14.6 16.1 94 0.6 SSW 24 33 13 18 1004.5 1004.1 0.4
26/11:30am 17.0 14.6 16.3 96 0.4 SSW 24 32 13 17 1004.3 1003.9 0.4
26/11:27am 17.2 15.6 16.4 95 0.5 SSW 20 32 11 17 1004.2 1003.8 0.4
26/11:18am 17.4 15.9 16.2 93 0.7 SSW 19 26 10 14 1004.1 1003.7 0.0
26/11:00am 17.1 14.2 16.1 94 0.6 S 26 35 14 19 1004.0 1003.6 0.0
26/10:47am 17.2 15.5 16.2 94 0.6 SSW 20 26 11 14 1003.9 1003.5 0.0
26/10:30am 17.6 16.1 16.4 93 0.7 S 19 26 10 14 1003.9 1003.5 0.0
26/10:00am 17.5 16.2 16.7 95 0.5 SSW 19 26 10 14 1003.6 1003.2 0.0
26/09:54am 17.5 16.0 16.8 96 0.4 SSW 20 28 11 15 1003.4 1003.0 0.0
26/09:30am 17.4 15.6 16.9 97 0.3 SSW 22 30 12 16 1003.1 1002.7 0.0
26/09:00am 17.4 16.0 17.1 98 0.2 SSW 20 28 11 15 1002.7 1002.3 7.0
26/08:30am 17.5 16.1 17.0 97 0.3 SSW 20 30 11 16 1002.4 1002.0 6.8
26/08:29am 17.4 15.9 16.7 96 0.4 SSW 20 30 11 16 1002.4 1002.0 6.8
26/08:00am 17.6 16.2 17.1 97 0.3 SSW 20 28 11 15 1001.7 1001.3 6.8
26/07:52am 17.7 16.6 17.2 97 0.3 SSW 19 26 10 14 1001.6 1001.2 6.6
26/07:30am 17.8 17.1 17.3 97 0.3 SSW 17 28 9 15 1001.2 1000.8 5.6
26/07:00am 17.8 17.1 17.3 97 0.3 SSW 17 26 9 14 1000.7 1000.3 4.4
26/06:53am 17.8 17.1 17.3 97 0.3 SSW 17 26 9 14 1000.3 999.9 4.4
26/06:30am 17.9 16.4 17.6 98 0.2 SSW 22 32 12 17 999.8 999.4 4.0
26/06:11am 18.7 17.5 18.5 99 0.1 SW 22 28 12 15 999.5 999.1 3.8
26/06:00am 18.9 18.1 18.4 97 0.3 SW 20 30 11 16 999.1 998.7 3.6
26/05:30am 19.3 17.9 18.7 96 0.4 WSW 24 32 13 17 998.6 998.2 3.4
26/05:18am 19.5 19.3 18.4 93 0.7 SW 17 28 9 15 998.4 998.0 2.0
26/05:10am 19.7 19.3 18.1 90 1.0 SW 17 28 9 15 997.9 997.5 1.8
26/05:00am 20.6 20.4 17.7 83 1.8 SW 15 22 8 12 997.6 997.2 0.6
26/04:30am 20.6 20.6 18.2 86 1.5 N 15 15 8 8 997.2 996.8 0.6
26/04:00am 20.2 21.8 18.3 89 1.2 NNE 7 13 4 7 997.1 996.7 0.6
26/03:30am 20.2 22.0 18.3 89 1.2 NNE 6 9 3 5 997.4 997.0 0.6
26/03:00am 19.6 21.2 18.2 92 0.9 NNW 7 9 4 5 998.3 997.9 0.6
26/02:30am 19.4 21.2 18.3 93 0.7 NNE 6 7 3 4 998.1 997.7 0.6
26/02:00am 19.2 20.3 18.1 93 0.7 NNE 9 11 5 6 998.6 998.2 0.6
26/01:30am 19.5 21.4 17.6 89 1.2 S 4 9 2 5 999.0 998.6 0.6
26/01:00am 20.4 21.0 16.8 80 2.2 ENE 9 17 5 9 999.0 998.6 0.0
26/12:30am 19.8 17.7 17.2 85 1.6 NE 24 30 13 16 999.1 998.7 0.0
26/12:00am 20.0 19.0 16.6 81 2.1 N 17 22 9 12 1000.2 999.8 0.0
 
Date/Time
EDT
Temp
°C
App
Temp
°C
Dew
Point
°C
Rel
Hum
%
Delta-T
°C
Wind Press
QNH
hPa
Press
MSL
hPa
Rain since
9am
mm
Dir  Spd
km/h
Gust
km/h
Spd
kts
Gust
kts
25/11:30pm 19.6 19.7 17.5 88 1.3 NNE 13 17 7 9 1000.2 999.8 0.0
25/11:00pm 20.4 20.8 16.3 77 2.5 NNW 9 11 5 6 1001.3 1000.9 0.0
25/10:30pm 20.5 20.8 16.0 75 2.7 WSW 9 13 5 7 1001.5 1001.1 0.0
25/10:00pm 20.7 20.2 15.9 74 2.9 SW 13 20 7 11 1001.4 1001.0 0.0
25/09:30pm 21.1 19.3 15.6 71 3.3 SW 19 26 10 14 1001.3 1000.9 0.0
25/09:00pm 21.2 19.4 15.6 70 3.4 SSW 19 26 10 14 1000.6 1000.1 0.0
25/08:30pm 21.3 19.4 15.8 71 3.3 SW 20 35 11 19 1000.6 1000.1 0.0
25/08:00pm 21.9 21.1 16.0 69 3.6 SSW 15 19 8 10 999.3 998.9 0.0
25/07:30pm 22.4 21.0 15.6 65 4.1 SSW 17 20 9 11 999.1 998.7 0.0
25/07:00pm 23.2 21.9 14.9 59 5.0 SSW 15 19 8 10 999.7 999.3 0.0
25/06:30pm 24.4 21.7 14.6 54 5.9 S 22 28 12 15 999.1 998.7 0.0
25/06:00pm 24.8 22.3 14.1 51 6.4 SSW 20 32 11 17 999.7 999.3 0.0
25/05:30pm 25.8 22.1 12.8 44 7.6 SSW 24 33 13 18 1000.2 999.8 0.0

Other formats

Comma delimited format used in spreadsheet applications
http://www.bom.gov.au/fwo/IDV60801/IDV60801.94866.axf

JavaScript Object Notation format (JSON) in row-major order
http://www.bom.gov.au/fwo/IDV60801/IDV60801.94866.json

Data quality

Most of these data are generated automatically and are frequently updated. Quality checks on data are not normally performed. It is possible for incorrect values to appear. Refer to information at About Latest Weather Observations and please check the disclaimer before using these data.